Time;durP1;ratioP1;P1;durP2;ratioP2;P2;SDS_P1;SDS_P2;PMS_P1;PMS_P2;Temp;Humidity;BMP_temperature;BMP_pressure;BME280_temperature;BME280_humidity;BME280_pressure;Samples;Min_cycle;Max_cycle;Signal;HPM_P1;HPM_P2
2022/11/13 00:01:09;;;;;;;;;;;;;;;10.37;76.96;102126.16;5348844;32;34826;-66
2022/11/13 00:04:11;;;;;;;;;;;;;;;10.54;76.44;102121.56;5346968;32;34462;-70
2022/11/13 00:07:13;;;;;;;;;;;;;;;10.74;75.87;102118.69;5339153;32;34701;-65
2022/11/13 00:10:15;;;;;;;;;;;;;;;10.98;75.12;102121.91;5339784;32;34985;-65
2022/11/13 00:13:17;;;;;;;;;;;;;;;10.22;77.15;102121.00;5354114;32;34175;-67
2022/11/13 00:16:19;;;;;;;;;;;;;;;10.08;78.90;102113.25;5342207;32;34869;-71
2022/11/13 00:19:21;;;;;;;;;;;;;;;10.48;77.11;102103.22;5357013;32;34227;-72
2022/11/13 00:22:23;;;;;;;;;;;;;;;11.02;73.99;102113.09;5323393;32;34200;-71
2022/11/13 00:25:24;;;;;;;;;;;;;;;11.11;73.23;102112.97;5357791;32;34386;-70
2022/11/13 00:28:26;;;;;;;;;;;;;;;10.88;73.81;102117.66;5348702;32;34814;-69
2022/11/13 00:31:28;;;;;;;;;;;;;;;11.48;71.41;102118.56;5348524;32;35443;-71
2022/11/13 00:34:30;;;;;;;;;;;;;;;11.43;70.65;102120.41;5352106;32;35590;-65
2022/11/13 00:37:48;;;;;;;;;;;;;;;11.51;70.29;102117.63;5344862;32;34519;-65
2022/11/13 00:40:50;;;;;;;;;;;;;;;11.30;71.26;102119.69;5364982;32;34206;-72
2022/11/13 00:43:52;;;;;;;;;;;;;;;11.08;72.39;102127.03;5349234;32;35045;-64
2022/11/13 00:46:53;;;;;;;;;;;;;;;11.34;71.04;102120.53;5333902;32;35020;-65
2022/11/13 00:49:55;;;;;;;;;;;;;;;10.92;72.63;102111.47;5356380;32;35299;-66
2022/11/13 00:52:57;;;;;;;;;;;;;;;11.16;72.15;102115.53;5338789;32;35461;-66
2022/11/13 00:55:59;;;;;;;;;;;;;;;11.26;70.96;102120.63;5364905;32;34766;-65
2022/11/13 00:59:01;;;;;;;;;;;;;;;10.84;72.95;102112.44;5345332;32;34870;-65
2022/11/13 01:02:03;;;;;;;;;;;;;;;11.34;70.50;102110.88;5345879;32;34213;-65
2022/11/13 01:05:05;;;;;;;;;;;;;;;10.92;71.52;102114.09;5342501;32;34132;-65
2022/11/13 01:08:07;;;;;;;;;;;;;;;10.64;74.02;102111.81;5345841;32;44944;-71
2022/11/13 01:11:13;;;;;;;;;;;;;;;9.96;76.26;102111.63;5341365;32;35021;-66
2022/11/13 01:14:15;;;;;;;;;;;;;;;10.46;74.50;102114.66;5347635;32;34930;-64
2022/11/13 01:17:17;;;;;;;;;;;;;;;10.85;72.85;102108.06;5337963;32;34760;-66
2022/11/13 01:20:19;;;;;;;;;;;;;;;10.96;71.42;102107.91;5337667;32;35365;-65
2022/11/13 01:23:21;;;;;;;;;;;;;;;11.11;69.73;102110.34;5322701;32;34623;-67
2022/11/13 01:26:28;;;;;;;;;;;;;;;10.11;74.59;102115.88;5320962;32;34665;-65
2022/11/13 01:29:30;;;;;;;;;;;;;;;10.10;76.28;102103.59;5350102;32;35036;-65
2022/11/13 01:32:32;;;;;;;;;;;;;;;9.32;80.07;102103.38;5349410;32;34947;-64
2022/11/13 01:35:33;;;;;;;;;;;;;;;9.27;81.76;102099.91;5347189;32;34355;-70
2022/11/13 01:38:35;;;;;;;;;;;;;;;9.81;80.47;102089.88;5362302;32;35386;-66
2022/11/13 01:41:38;;;;;;;;;;;;;;;10.62;76.69;102084.66;5345798;32;45486;-65
2022/11/13 01:44:49;;;;;;;;;;;;;;;10.32;77.24;102083.28;5364665;32;35179;-64
2022/11/13 01:47:51;;;;;;;;;;;;;;;9.92;79.41;102085.41;5314405;32;34925;-70
2022/11/13 01:50:53;;;;;;;;;;;;;;;9.20;82.74;102084.19;5346050;32;35303;-65
2022/11/13 01:53:55;;;;;;;;;;;;;;;9.23;83.01;102086.81;5337139;32;34390;-66
2022/11/13 01:56:57;;;;;;;;;;;;;;;9.33;83.91;102079.75;5327275;32;34994;-70
2022/11/13 01:59:59;;;;;;;;;;;;;;;9.37;84.34;102084.09;5333806;32;34753;-71
2022/11/13 02:03:01;;;;;;;;;;;;;;;9.71;81.93;102062.81;5333985;32;34828;-72
2022/11/13 02:06:03;;;;;;;;;;;;;;;9.21;85.40;102069.38;5351588;32;35359;-70
2022/11/13 02:09:05;;;;;;;;;;;;;;;10.11;80.00;102058.06;5348408;32;34965;-70
2022/11/13 02:12:09;;;;;;;;;;;;;;;9.29;84.90;102069.31;5327311;32;44770;-70
2022/11/13 02:15:11;;;;;;;;;;;;;;;9.35;85.54;102066.63;5356431;32;35003;-70
2022/11/13 02:18:13;;;;;;;;;;;;;;;9.25;84.33;102067.56;5322995;32;34666;-70
2022/11/13 02:21:25;;;;;;;;;;;;;;;9.52;83.39;102066.50;5347332;32;35311;-67
2022/11/13 02:24:27;;;;;;;;;;;;;;;8.94;84.88;102071.25;5328658;32;35198;-71
2022/11/13 02:27:32;;;;;;;;;;;;;;;9.17;85.18;102070.25;5347509;32;34678;-70
2022/11/13 02:30:34;;;;;;;;;;;;;;;8.56;87.59;102066.19;5359764;32;35410;-64
2022/11/13 02:33:35;;;;;;;;;;;;;;;8.86;88.22;102064.31;5332542;32;34574;-64
2022/11/13 02:36:37;;;;;;;;;;;;;;;8.82;87.18;102058.22;5356258;32;45143;-70
2022/11/13 02:39:39;;;;;;;;;;;;;;;8.93;88.15;102061.63;5344372;32;34294;-64
2022/11/13 02:42:41;;;;;;;;;;;;;;;8.74;88.70;102059.12;5355725;32;35430;-68
2022/11/13 02:45:43;;;;;;;;;;;;;;;8.45;89.76;102056.66;5336487;32;35151;-69
2022/11/13 02:48:45;;;;;;;;;;;;;;;8.90;89.08;102050.31;5334539;32;34965;-71
2022/11/13 02:51:46;;;;;;;;;;;;;;;8.70;86.87;102070.53;5352398;32;34465;-70
2022/11/13 02:54:48;;;;;;;;;;;;;;;8.55;89.18;102061.81;5325550;32;34392;-70
2022/11/13 02:57:50;;;;;;;;;;;;;;;8.41;85.69;102056.63;5359139;32;35504;-70
2022/11/13 03:00:52;;;;;;;;;;;;;;;8.83;86.08;102059.97;5339582;32;34163;-66
2022/11/13 03:03:54;;;;;;;;;;;;;;;9.31;84.79;102057.03;5337725;32;35449;-71
2022/11/13 03:06:58;;;;;;;;;;;;;;;8.90;84.95;102053.81;5333283;32;36316;-65
2022/11/13 03:10:00;;;;;;;;;;;;;;;8.17;89.14;102061.03;5346278;32;34876;-71
2022/11/13 03:13:02;;;;;;;;;;;;;;;8.83;86.46;102056.47;5360557;32;37239;-71
2022/11/13 03:16:08;;;;;;;;;;;;;;;7.99;87.85;102051.50;5347320;32;35762;-65
2022/11/13 03:19:09;;;;;;;;;;;;;;;8.65;87.88;102046.94;5350848;32;44541;-70
2022/11/13 03:22:11;;;;;;;;;;;;;;;9.20;82.04;102044.84;5334310;32;34547;-65
2022/11/13 03:25:13;;;;;;;;;;;;;;;8.57;85.80;102060.09;5357160;32;34722;-71
2022/11/13 03:28:15;;;;;;;;;;;;;;;8.61;86.22;102059.19;5347378;32;34291;-65
2022/11/13 03:31:17;;;;;;;;;;;;;;;9.09;83.19;102066.81;5348402;32;34351;-70
2022/11/13 03:34:19;;;;;;;;;;;;;;;9.73;79.95;102066.31;5357728;32;34235;-65
2022/11/13 03:37:20;;;;;;;;;;;;;;;9.82;79.01;102060.09;5345399;32;35021;-69
2022/11/13 03:40:22;;;;;;;;;;;;;;;8.85;81.62;102058.19;5360457;32;34873;-71
2022/11/13 03:43:24;;;;;;;;;;;;;;;7.87;88.08;102060.25;5345570;32;34692;-65
2022/11/13 03:46:26;;;;;;;;;;;;;;;8.61;87.05;102053.94;5345985;32;35643;-64
2022/11/13 03:49:28;;;;;;;;;;;;;;;9.17;83.69;102059.75;5342244;32;34702;-71
2022/11/13 03:52:29;;;;;;;;;;;;;;;8.92;82.04;102033.69;5337369;32;34961;-73
2022/11/13 03:55:31;;;;;;;;;;;;;;;9.01;81.26;102058.97;5364444;32;34710;-72
2022/11/13 03:58:33;;;;;;;;;;;;;;;8.12;85.62;102064.56;5324878;32;35856;-64
2022/11/13 04:01:40;;;;;;;;;;;;;;;7.86;88.64;102067.22;5360178;32;45602;-71
2022/11/13 04:04:43;;;;;;;;;;;;;;;8.88;83.73;102045.06;5343053;32;36058;-65
2022/11/13 04:07:45;;;;;;;;;;;;;;;8.18;86.04;102058.44;5348105;32;35162;-64
2022/11/13 04:10:47;;;;;;;;;;;;;;;8.17;86.37;102063.66;5351124;32;35575;-67
2022/11/13 04:13:49;;;;;;;;;;;;;;;8.15;83.15;102053.19;5342818;32;35069;-64
2022/11/13 04:16:50;;;;;;;;;;;;;;;7.62;87.67;102059.41;5358990;32;35066;-65
2022/11/13 04:19:52;;;;;;;;;;;;;;;7.93;89.79;102055.00;5345157;32;34461;-65
2022/11/13 04:22:54;;;;;;;;;;;;;;;8.24;84.77;102063.63;5350799;32;34488;-64
2022/11/13 04:25:56;;;;;;;;;;;;;;;8.67;83.03;102061.78;5350262;32;35083;-72
2022/11/13 04:28:58;;;;;;;;;;;;;;;8.14;85.37;102067.19;5360875;32;35740;-64
2022/11/13 04:32:00;;;;;;;;;;;;;;;8.95;82.84;102052.03;5351400;32;34930;-70
2022/11/13 04:35:02;;;;;;;;;;;;;;;8.67;82.17;102058.28;5343810;32;35453;-65
2022/11/13 04:38:04;;;;;;;;;;;;;;;8.11;85.89;102046.22;5364536;32;34694;-71
2022/11/13 04:44:39;;;;;;;;;;;;;;;7.92;86.37;102054.97;5321819;32;35400;-72
2022/11/13 04:47:41;;;;;;;;;;;;;;;8.05;85.36;102054.97;5330143;32;35500;-64
2022/11/13 04:50:43;;;;;;;;;;;;;;;7.80;87.28;102058.53;5354045;32;35215;-65
2022/11/13 04:53:45;;;;;;;;;;;;;;;7.85;88.07;102059.34;5347598;32;37280;-64
2022/11/13 04:56:47;;;;;;;;;;;;;;;7.69;89.34;102055.03;5344502;32;34672;-71
2022/11/13 04:59:48;;;;;;;;;;;;;;;8.34;84.04;102056.63;5360005;32;34949;-67
2022/11/13 05:02:50;;;;;;;;;;;;;;;8.19;85.22;102056.69;5331573;32;34190;-70
2022/11/13 05:05:52;;;;;;;;;;;;;;;7.42;87.55;102063.75;5359692;32;35421;-70
2022/11/13 05:08:54;;;;;;;;;;;;;;;8.49;82.76;102056.59;5349164;32;34508;-71
2022/11/13 05:11:56;;;;;;;;;;;;;;;7.64;85.45;102057.63;5342146;32;35462;-66
2022/11/13 05:14:58;;;;;;;;;;;;;;;7.18;90.45;102062.84;5337761;32;34731;-70
2022/11/13 05:18:00;;;;;;;;;;;;;;;7.68;88.47;102058.53;5337488;32;34260;-64
2022/11/13 05:21:02;;;;;;;;;;;;;;;7.81;89.74;102068.97;5354343;32;35447;-70
2022/11/13 05:24:04;;;;;;;;;;;;;;;7.68;85.70;102051.53;5336525;32;34802;-63
2022/11/13 05:27:06;;;;;;;;;;;;;;;7.63;87.03;102071.59;5338284;32;35020;-70
2022/11/13 05:30:12;;;;;;;;;;;;;;;8.05;85.37;102057.59;5324914;32;44862;-64
2022/11/13 05:33:14;;;;;;;;;;;;;;;7.83;85.98;102063.72;5334298;32;34745;-65
2022/11/13 05:36:16;;;;;;;;;;;;;;;8.33;84.01;102060.13;5352486;32;34477;-66
2022/11/13 05:39:18;;;;;;;;;;;;;;;8.41;83.80;102059.25;5345571;32;34440;-69
2022/11/13 05:42:20;;;;;;;;;;;;;;;7.26;88.16;102068.09;5356003;32;34974;-65
2022/11/13 05:45:22;;;;;;;;;;;;;;;7.09;89.18;102062.84;5333506;32;35198;-70
2022/11/13 05:48:23;;;;;;;;;;;;;;;8.19;85.82;102054.06;5335340;32;35582;-64
2022/11/13 05:51:27;;;;;;;;;;;;;;;8.56;82.30;102037.34;5330174;32;34646;-71
2022/11/13 05:54:29;;;;;;;;;;;;;;;7.90;85.98;102056.75;5337451;32;35005;-64
2022/11/13 05:57:30;;;;;;;;;;;;;;;8.57;84.27;102049.59;5350706;32;35599;-64
2022/11/13 06:00:32;;;;;;;;;;;;;;;8.89;79.61;102038.09;5343299;32;34719;-64
2022/11/13 06:03:34;;;;;;;;;;;;;;;8.62;83.27;102034.72;5354220;32;35533;-70
2022/11/13 06:06:36;;;;;;;;;;;;;;;7.78;85.43;102041.91;5330163;32;44024;-66
2022/11/13 06:09:38;;;;;;;;;;;;;;;7.87;87.04;102042.78;5354621;32;44546;-67
2022/11/13 06:12:40;;;;;;;;;;;;;;;7.65;86.71;102041.06;5338643;32;35052;-70
2022/11/13 06:15:42;;;;;;;;;;;;;;;7.79;85.93;102033.19;5338223;32;34961;-64
2022/11/13 06:18:44;;;;;;;;;;;;;;;7.89;85.43;102048.03;5365771;32;35317;-65
2022/11/13 06:21:45;;;;;;;;;;;;;;;7.75;85.57;102055.03;5334286;32;35343;-65
2022/11/13 06:24:47;;;;;;;;;;;;;;;8.58;84.69;102053.97;5354956;32;34242;-65
2022/11/13 06:27:49;;;;;;;;;;;;;;;7.75;85.42;102045.41;5319874;32;35029;-64
2022/11/13 06:30:51;;;;;;;;;;;;;;;7.34;89.73;102042.81;5362796;32;35712;-64
2022/11/13 06:33:53;;;;;;;;;;;;;;;7.44;88.81;102052.41;5334195;32;34494;-66
2022/11/13 06:36:55;;;;;;;;;;;;;;;7.78;86.92;102052.38;5340907;32;35384;-70
2022/11/13 06:39:57;;;;;;;;;;;;;;;7.98;84.50;102045.38;5361081;32;34913;-64
2022/11/13 06:42:58;;;;;;;;;;;;;;;7.66;84.26;102049.78;5339712;32;35622;-70
2022/11/13 06:46:04;;;;;;;;;;;;;;;6.99;89.74;102054.09;5347688;32;34744;-71
2022/11/13 06:49:06;;;;;;;;;;;;;;;7.25;90.29;102051.53;5330686;32;35334;-68
2022/11/13 06:52:08;;;;;;;;;;;;;;;7.28;89.65;102062.00;5334568;32;44485;-64
2022/11/13 06:55:09;;;;;;;;;;;;;;;8.18;84.39;102055.81;5341352;32;34805;-70
2022/11/13 06:58:11;;;;;;;;;;;;;;;7.74;85.19;102069.84;5333052;32;35564;-64
2022/11/13 07:01:18;;;;;;;;;;;;;;;7.84;87.80;102068.97;5348900;32;34932;-70
2022/11/13 07:04:20;;;;;;;;;;;;;;;8.69;83.63;102067.00;5341724;32;35156;-65
2022/11/13 07:07:21;;;;;;;;;;;;;;;8.54;80.84;102067.94;5357011;32;34358;-66
2022/11/13 07:10:23;;;;;;;;;;;;;;;8.11;84.50;102073.31;5342696;32;34853;-65
2022/11/13 07:13:26;;;;;;;;;;;;;;;8.34;85.75;102075.84;5354849;32;35022;-65
2022/11/13 07:16:27;;;;;;;;;;;;;;;7.88;87.10;102080.31;5329484;32;35986;-72
2022/11/13 07:19:49;;;;;;;;;;;;;;;7.42;89.78;102069.84;5331002;32;35225;-71
2022/11/13 07:22:53;;;;;;;;;;;;;;;7.52;88.13;102079.44;5362463;32;34849;-64
2022/11/13 07:25:55;;;;;;;;;;;;;;;8.27;85.63;102079.38;5343894;32;34981;-72
2022/11/13 07:28:57;;;;;;;;;;;;;;;8.97;80.40;102078.25;5365390;32;34888;-67
2022/11/13 07:31:59;;;;;;;;;;;;;;;7.68;86.32;102075.09;5348365;32;34098;-70
2022/11/13 07:35:01;;;;;;;;;;;;;;;8.07;85.96;102075.94;5332714;32;36063;-70
2022/11/13 07:38:03;;;;;;;;;;;;;;;8.50;85.25;102066.25;5358311;32;34770;-64
2022/11/13 07:41:04;;;;;;;;;;;;;;;9.10;81.29;102069.41;5345004;32;35204;-63
2022/11/13 07:44:06;;;;;;;;;;;;;;;7.80;85.14;102087.31;5362782;32;38100;-65
2022/11/13 07:47:10;;;;;;;;;;;;;;;7.87;85.12;102078.56;5326054;32;34987;-71
2022/11/13 07:50:12;;;;;;;;;;;;;;;7.55;88.47;102089.91;5363201;32;34456;-65
2022/11/13 07:53:14;;;;;;;;;;;;;;;8.08;87.36;102082.91;5334508;32;34131;-65
2022/11/13 07:56:16;;;;;;;;;;;;;;;7.70;87.50;102077.69;5346071;32;35333;-70
2022/11/13 07:59:23;;;;;;;;;;;;;;;8.21;86.83;102083.75;5358450;32;34854;-70
2022/11/13 08:02:25;;;;;;;;;;;;;;;8.53;85.46;102071.44;5340523;32;35058;-71
2022/11/13 08:05:28;;;;;;;;;;;;;;;8.02;85.60;102081.16;5346893;32;34854;-64
2022/11/13 08:08:30;;;;;;;;;;;;;;;8.07;85.30;102075.94;5349326;32;35942;-65
2022/11/13 08:11:33;;;;;;;;;;;;;;;7.73;87.55;102075.97;5360947;32;35890;-71
2022/11/13 08:14:35;;;;;;;;;;;;;;;8.22;85.07;102073.25;5330284;32;35078;-71
2022/11/13 08:17:36;;;;;;;;;;;;;;;9.00;81.40;102079.97;5337123;32;45068;-70
2022/11/13 08:20:38;;;;;;;;;;;;;;;8.18;84.43;102091.59;5345064;32;36786;-70
2022/11/13 08:23:40;;;;;;;;;;;;;;;7.53;86.40;102083.78;5330253;32;35153;-65
2022/11/13 08:26:42;;;;;;;;;;;;;;;8.58;83.60;102079.31;5341103;32;34859;-64
2022/11/13 08:29:44;;;;;;;;;;;;;;;8.49;84.32;102084.56;5342851;32;34257;-65
2022/11/13 08:32:46;;;;;;;;;;;;;;;7.14;91.08;102083.75;5344354;32;34869;-66
2022/11/13 08:35:52;;;;;;;;;;;;;;;7.54;91.24;102082.09;5325897;32;35543;-71
2022/11/13 08:38:54;;;;;;;;;;;;;;;7.95;88.83;102078.56;5345046;32;34569;-64
2022/11/13 08:41:56;;;;;;;;;;;;;;;8.02;85.37;102073.31;5339257;32;34964;-70
2022/11/13 08:44:57;;;;;;;;;;;;;;;7.95;87.45;102078.56;5344315;32;35473;-65
2022/11/13 08:48:00;;;;;;;;;;;;;;;8.25;86.78;102072.41;5324066;32;35018;-65
2022/11/13 08:51:02;;;;;;;;;;;;;;;8.22;85.33;102064.53;5338407;32;34595;-66
2022/11/13 08:54:04;;;;;;;;;;;;;;;8.55;83.47;102069.69;5346537;32;34507;-69
2022/11/13 08:57:05;;;;;;;;;;;;;;;8.76;83.82;102067.84;5348230;32;35017;-66
2022/11/13 09:00:08;;;;;;;;;;;;;;;9.39;78.05;102061.34;5340896;32;45365;-71
2022/11/13 09:03:10;;;;;;;;;;;;;;;8.55;80.29;102064.44;5366571;32;35441;-71
2022/11/13 09:06:12;;;;;;;;;;;;;;;8.24;84.49;102081.97;5328626;32;34941;-65
2022/11/13 09:09:13;;;;;;;;;;;;;;;8.85;84.00;102067.81;5361578;32;34735;-71
2022/11/13 09:12:15;;;;;;;;;;;;;;;8.66;84.32;102073.16;5342155;32;34820;-66
2022/11/13 09:15:17;;;;;;;;;;;;;;;8.25;86.43;102067.16;5359527;32;35657;-66
2022/11/13 09:18:25;;;;;;;;;;;;;;;8.90;83.25;102061.66;5350969;32;35371;-70
2022/11/13 09:21:27;;;;;;;;;;;;;;;8.79;81.78;102068.72;5323004;32;34403;-64
2022/11/13 09:24:29;;;;;;;;;;;;;;;9.42;81.48;102069.19;5347212;32;35658;-70
2022/11/13 09:27:31;;;;;;;;;;;;;;;10.16;78.08;102060.63;5343102;32;37113;-65
2022/11/13 09:30:33;;;;;;;;;;;;;;;10.79;73.88;102060.78;5361514;32;35503;-64
2022/11/13 09:33:35;;;;;;;;;;;;;;;9.50;79.44;102066.50;5342365;32;34385;-66
2022/11/13 09:36:36;;;;;;;;;;;;;;;9.40;79.28;102062.19;5343132;32;43868;-65
2022/11/13 09:39:38;;;;;;;;;;;;;;;9.98;79.62;102054.72;5345145;32;34684;-69
2022/11/13 09:42:40;;;;;;;;;;;;;;;10.71;75.64;102049.50;5336818;32;34837;-71
2022/11/13 09:45:42;;;;;;;;;;;;;;;10.92;73.11;102043.94;5335262;32;35314;-64
2022/11/13 09:48:49;;;;;;;;;;;;;;;9.78;76.83;102041.75;5326120;32;34456;-71
2022/11/13 09:51:55;;;;;;;;;;;;;;;10.91;74.39;102046.59;5360396;32;34990;-65
2022/11/13 09:54:57;;;;;;;;;;;;;;;10.78;72.82;102036.25;5342069;32;34835;-67
2022/11/13 09:58:28;;;;;;;;;;;;;;;10.36;76.86;102032.41;5333001;32;34954;-71
2022/11/13 10:01:35;;;;;;;;;;;;;;;10.84;75.98;102036.16;5342365;32;36341;-65
2022/11/13 10:04:46;;;;;;;;;;;;;;;10.69;76.04;102030.22;5329011;32;44685;-65
2022/11/13 10:07:48;;;;;;;;;;;;;;;10.23;78.34;102017.66;5356704;32;35478;-65
2022/11/13 10:10:53;;;;;;;;;;;;;;;9.96;79.14;102010.94;5343619;32;34334;-69
2022/11/13 10:13:57;;;;;;;;;;;;;;;11.03;74.74;102025.38;5347324;32;35547;-70
2022/11/13 10:16:59;;;;;;;;;;;;;;;11.25;72.31;102010.97;5346748;32;35062;-67
2022/11/13 10:20:03;;;;;;;;;;;;;;;11.46;71.55;101998.34;5346769;32;34447;-65
2022/11/13 10:23:08;;;;;;;;;;;;;;;10.77;72.99;102000.31;5343912;32;34887;-72
2022/11/13 10:26:14;;;;;;;;;;;;;;;10.89;75.76;101993.16;5343895;32;44498;-72
2022/11/13 10:29:17;;;;;;;;;;;;;;;12.07;70.69;101987.59;5360547;32;34752;-70
2022/11/13 10:32:23;;;;;;;;;;;;;;;11.90;70.37;101979.16;5342805;32;34629;-71
2022/11/13 10:35:38;;;;;;;;;;;;;;;11.43;73.45;101977.34;5337721;32;34668;-65
2022/11/13 10:38:41;;;;;;;;;;;;;;;11.70;71.69;101971.59;5362841;32;45176;-70
2022/11/13 10:41:50;;;;;;;;;;;;;;;11.31;73.16;101974.03;5336597;32;35851;-66
2022/11/13 10:44:54;;;;;;;;;;;;;;;12.11;69.92;101951.53;5354740;32;34842;-71
2022/11/13 10:47:55;;;;;;;;;;;;;;;11.97;70.64;101959.69;5317627;32;34288;-65
2022/11/13 10:51:19;;;;;;;;;;;;;;;12.50;68.42;101957.72;5339253;32;34676;-72
2022/11/13 10:54:20;;;;;;;;;;;;;;;12.30;69.59;101955.50;5342292;32;35058;-71
2022/11/13 10:57:31;;;;;;;;;;;;;;;11.94;69.69;101954.47;5337676;32;35569;-65
2022/11/13 11:00:34;;;;;;;;;;;;;;;11.41;73.55;101952.84;5341907;32;34507;-71
2022/11/13 11:03:36;;;;;;;;;;;;;;;11.39;75.06;101950.19;5333766;32;44053;-70
2022/11/13 11:06:39;;;;;;;;;;;;;;;11.96;72.85;101936.00;5352202;32;35483;-69
2022/11/13 11:10:01;;;;;;;;;;;;;;;11.28;74.46;101939.88;5337528;32;35539;-73
2022/11/13 11:13:09;;;;;;;;;;;;;;;11.39;74.48;101945.81;5334410;32;35500;-64
2022/11/13 11:16:13;;;;;;;;;;;;;;;11.20;75.49;101935.63;5355450;32;44745;-65
2022/11/13 11:19:15;;;;;;;;;;;;;;;11.39;74.07;101935.28;5343378;32;35266;-66
2022/11/13 11:22:18;;;;;;;;;;;;;;;11.82;73.85;101918.72;5350680;32;35448;-64
2022/11/13 11:25:26;;;;;;;;;;;;;;;12.94;68.52;101914.44;5324057;32;35536;-66
2022/11/13 11:28:32;;;;;;;;;;;;;;;11.68;73.85;101918.09;5348434;32;34853;-66
2022/11/13 11:31:36;;;;;;;;;;;;;;;11.48;75.27;101910.56;5346373;32;35572;-71
2022/11/13 11:34:43;;;;;;;;;;;;;;;12.75;70.52;101913.12;5324019;32;45140;-66
2022/11/13 11:37:47;;;;;;;;;;;;;;;13.53;65.26;101913.84;5342590;32;35345;-70
2022/11/13 11:40:51;;;;;;;;;;;;;;;12.87;68.56;101912.84;5330223;32;35731;-71
2022/11/13 11:44:01;;;;;;;;;;;;;;;12.59;70.75;101904.75;5358389;32;34645;-72
2022/11/13 11:47:02;;;;;;;;;;;;;;;11.88;71.84;101896.66;5325320;32;34856;-71
2022/11/13 11:50:06;;;;;;;;;;;;;;;12.64;70.36;101900.22;5345921;32;37197;-66
2022/11/13 11:53:17;;;;;;;;;;;;;;;12.86;68.88;101897.06;5341682;32;44730;-70
2022/11/13 11:56:26;;;;;;;;;;;;;;;12.43;71.66;101884.91;5334084;32;34607;-65
2022/11/13 11:59:31;;;;;;;;;;;;;;;14.15;64.08;101878.59;5342457;32;34924;-72
2022/11/13 12:02:38;;;;;;;;;;;;;;;13.77;65.00;101875.28;5338859;32;35110;-65
2022/11/13 12:05:55;;;;;;;;;;;;;;;13.75;64.98;101864.78;5328205;32;45582;-65
2022/11/13 12:08:57;;;;;;;;;;;;;;;13.95;64.25;101869.47;5359818;32;35447;-70
2022/11/13 12:12:11;;;;;;;;;;;;;;;12.93;68.18;101864.34;5341732;32;34376;-65
2022/11/13 12:15:22;;;;;;;;;;;;;;;12.78;69.44;101859.47;5356168;32;45098;-73
2022/11/13 12:18:24;;;;;;;;;;;;;;;13.58;65.87;101855.59;5323951;32;35149;-72
2022/11/13 12:21:29;;;;;;;;;;;;;;;13.45;65.64;101847.16;5339041;32;34753;-70
2022/11/13 12:24:40;;;;;;;;;;;;;;;13.01;67.45;101841.28;5338628;32;36577;-66
2022/11/13 12:27:42;;;;;;;;;;;;;;;13.57;66.41;101838.88;5346565;32;44702;-70
2022/11/13 12:30:44;;;;;;;;;;;;;;;14.36;62.96;101827.66;5346227;32;34788;-65
2022/11/13 12:33:51;;;;;;;;;;;;;;;14.37;63.57;101829.44;5347306;32;33848;-72
2022/11/13 12:37:00;;;;;;;;;;;;;;;13.37;67.24;101833.28;5337645;32;35545;-71
2022/11/13 12:40:06;;;;;;;;;;;;;;;12.89;69.44;101825.75;5338349;32;34778;-65
2022/11/13 12:43:07;;;;;;;;;;;;;;;13.94;65.31;101814.03;5335479;32;45208;-71
2022/11/13 12:46:10;;;;;;;;;;;;;;;14.64;62.30;101817.09;5345570;32;35487;-66
2022/11/13 12:49:21;;;;;;;;;;;;;;;14.57;62.58;101805.84;5327706;32;35343;-65
2022/11/13 12:52:23;;;;;;;;;;;;;;;14.75;62.21;101804.38;5364575;32;34931;-65
2022/11/13 12:55:26;;;;;;;;;;;;;;;13.30;65.66;101797.41;5340815;32;34560;-71
2022/11/13 12:58:29;;;;;;;;;;;;;;;13.71;65.88;101797.06;5333657;32;35191;-65
2022/11/13 13:01:33;;;;;;;;;;;;;;;13.77;66.24;101796.03;5345158;32;35357;-65
2022/11/13 13:05:01;;;;;;;;;;;;;;;13.50;65.87;101790.63;5327406;32;34552;-65
2022/11/13 13:08:06;;;;;;;;;;;;;;;14.11;64.64;101777.38;5327484;32;35416;-71
2022/11/13 13:11:13;;;;;;;;;;;;;;;15.51;60.33;101774.28;5345269;32;47255;-66
2022/11/13 13:14:33;;;;;;;;;;;;;;;16.00;57.97;101777.72;5326002;32;34295;-65
2022/11/13 13:17:35;;;;;;;;;;;;;;;16.39;55.72;101774.38;5348687;32;35451;-71
2022/11/13 13:20:38;;;;;;;;;;;;;;;16.14;57.34;101774.53;5342963;32;44908;-66
2022/11/13 13:23:44;;;;;;;;;;;;;;;16.69;54.55;101774.91;5337001;32;34946;-67
2022/11/13 13:26:46;;;;;;;;;;;;;;;15.01;60.04;101774.38;5342523;32;34346;-64
2022/11/13 13:29:48;;;;;;;;;;;;;;;16.36;55.65;101755.91;5353053;32;34774;-72
2022/11/13 13:32:50;;;;;;;;;;;;;;;16.17;55.77;101759.34;5337248;32;34477;-65
2022/11/13 13:36:05;;;;;;;;;;;;;;;15.60;57.68;101763.34;5343942;32;34843;-65
2022/11/13 13:39:14;;;;;;;;;;;;;;;15.66;57.58;101763.13;5349680;32;45364;-66
2022/11/13 13:42:25;;;;;;;;;;;;;;;14.01;63.18;101774.12;5332982;32;34656;-67
2022/11/13 13:45:36;;;;;;;;;;;;;;;14.52;61.80;101762.81;5353807;32;34728;-66
2022/11/13 13:48:39;;;;;;;;;;;;;;;15.11;59.92;101770.44;5326981;32;44584;-71
2022/11/13 13:51:42;;;;;;;;;;;;;;;16.49;55.98;101760.69;5345383;32;35091;-72
2022/11/13 13:54:44;;;;;;;;;;;;;;;16.48;55.34;101755.41;5346312;32;35666;-68
2022/11/13 13:57:46;;;;;;;;;;;;;;;16.05;56.17;101754.53;5349187;32;35202;-71
2022/11/13 14:00:55;;;;;;;;;;;;;;;14.08;61.63;101761.59;5361152;32;34827;-66
2022/11/13 14:04:18;;;;;;;;;;;;;;;14.63;61.61;101750.09;5336749;32;35475;-65
2022/11/13 14:07:27;;;;;;;;;;;;;;;14.09;62.85;101744.81;5332216;32;35214;-72
2022/11/13 14:10:29;;;;;;;;;;;;;;;14.31;62.43;101752.91;5350452;32;34480;-70
2022/11/13 14:13:31;;;;;;;;;;;;;;;13.63;65.41;101750.66;5348440;32;36054;-70
2022/11/13 14:16:33;;;;;;;;;;;;;;;13.76;64.85;101752.00;5363591;32;35638;-72
2022/11/13 14:19:35;;;;;;;;;;;;;;;13.50;65.36;101750.16;5349014;32;35675;-65
2022/11/13 14:22:37;;;;;;;;;;;;;;;13.44;65.01;101755.63;5352609;32;44543;-64
2022/11/13 14:25:39;;;;;;;;;;;;;;;14.19;62.79;101742.75;5346162;32;35453;-67
2022/11/13 14:28:43;;;;;;;;;;;;;;;13.63;64.94;101738.31;5337149;32;35312;-67
2022/11/13 14:31:44;;;;;;;;;;;;;;;14.23;62.73;101741.72;5359257;32;34454;-64
2022/11/13 14:34:50;;;;;;;;;;;;;;;13.91;63.60;101751.56;5333997;32;34348;-64
2022/11/13 14:37:52;;;;;;;;;;;;;;;13.83;64.56;101742.97;5348961;32;34781;-66
2022/11/13 14:40:54;;;;;;;;;;;;;;;13.98;64.08;101747.81;5342056;32;35657;-67
2022/11/13 14:43:56;;;;;;;;;;;;;;;13.87;63.28;101749.91;5347036;32;35090;-71
2022/11/13 14:46:58;;;;;;;;;;;;;;;13.69;64.10;101743.41;5322280;32;35267;-71
2022/11/13 14:50:19;;;;;;;;;;;;;;;13.51;65.32;101744.81;5338859;32;34651;-72
2022/11/13 14:53:29;;;;;;;;;;;;;;;13.42;65.51;101739.81;5348661;32;35597;-72
2022/11/13 14:56:40;;;;;;;;;;;;;;;13.71;64.28;101741.56;5343779;32;35434;-67
2022/11/13 14:59:42;;;;;;;;;;;;;;;13.75;64.12;101743.22;5359027;32;44769;-66
2022/11/13 15:02:44;;;;;;;;;;;;;;;12.54;67.65;101734.31;5323278;32;34000;-66
2022/11/13 15:05:46;;;;;;;;;;;;;;;13.20;66.63;101736.03;5330600;32;34285;-65
2022/11/13 15:08:48;;;;;;;;;;;;;;;13.72;64.19;101735.41;5362861;32;34251;-72
2022/11/13 15:11:50;;;;;;;;;;;;;;;12.58;68.82;101741.25;5335056;32;35662;-72
2022/11/13 15:14:52;;;;;;;;;;;;;;;12.57;69.18;101735.13;5360033;32;34914;-74
2022/11/13 15:17:54;;;;;;;;;;;;;;;12.44;69.85;101731.94;5337455;32;35368;-71
2022/11/13 15:20:56;;;;;;;;;;;;;;;13.48;65.81;101733.50;5357191;32;34183;-72
2022/11/13 15:23:59;;;;;;;;;;;;;;;13.56;64.75;101734.13;5334543;32;35688;-65
2022/11/13 15:27:01;;;;;;;;;;;;;;;12.70;67.46;101722.47;5331259;32;34311;-66
2022/11/13 15:30:03;;;;;;;;;;;;;;;12.79;67.55;101719.59;5342484;32;35491;-65
2022/11/13 15:33:10;;;;;;;;;;;;;;;12.97;66.64;101716.44;5318310;32;34905;-74
2022/11/13 15:36:12;;;;;;;;;;;;;;;12.65;68.30;101717.31;5341410;32;44898;-73
2022/11/13 15:39:13;;;;;;;;;;;;;;;13.12;66.92;101728.34;5345622;32;34721;-65
2022/11/13 15:42:28;;;;;;;;;;;;;;;12.92;66.76;101728.87;5354780;32;34227;-73
2022/11/13 15:45:29;;;;;;;;;;;;;;;12.65;68.09;101724.38;5330816;32;35036;-72
2022/11/13 15:48:31;;;;;;;;;;;;;;;12.32;70.63;101732.25;5324086;32;35569;-72
2022/11/13 15:51:35;;;;;;;;;;;;;;;12.65;68.47;101727.88;5360540;32;34360;-72
2022/11/13 15:54:37;;;;;;;;;;;;;;;12.25;69.64;101732.44;5343085;32;45291;-66